createdAt,value
2018-06-28T00:00:45.558Z,17.30
2018-06-28T00:03:13.177Z,17.20
2018-06-28T00:05:40.765Z,17.20
2018-06-28T00:08:08.357Z,17.00
2018-06-28T00:10:37.055Z,17.00
2018-06-28T00:13:04.705Z,16.90
2018-06-28T00:15:32.253Z,16.90
2018-06-28T00:17:59.785Z,16.80
2018-06-28T00:20:27.373Z,16.80
2018-06-28T00:22:55.589Z,16.80
2018-06-28T00:25:23.190Z,16.80
2018-06-28T00:27:50.761Z,16.80
2018-06-28T00:30:18.371Z,16.70
2018-06-28T00:32:45.997Z,16.60
2018-06-28T00:35:13.541Z,16.60
2018-06-28T00:37:41.139Z,16.60
2018-06-28T00:40:09.932Z,16.70
2018-06-28T00:42:37.500Z,16.50
2018-06-28T00:45:05.140Z,16.40
2018-06-28T00:47:39.018Z,16.20
2018-06-28T00:50:06.613Z,16.20
2018-06-28T00:52:34.191Z,16.20
2018-06-28T00:55:01.779Z,16.20
2018-06-28T00:57:29.329Z,16.10
2018-06-28T00:59:56.994Z,16.10
2018-06-28T01:02:24.630Z,16.00
2018-06-28T01:04:52.178Z,15.90
2018-06-28T01:07:20.032Z,15.90
2018-06-28T01:09:47.557Z,15.80
2018-06-28T01:12:15.128Z,15.80
2018-06-28T01:14:43.005Z,15.70
2018-06-28T01:17:10.573Z,15.50
2018-06-28T01:19:38.133Z,15.40
2018-06-28T01:22:05.910Z,15.40
2018-06-28T01:24:33.491Z,15.40
2018-06-28T01:27:01.086Z,15.30
2018-06-28T01:29:28.825Z,15.30
2018-06-28T01:31:56.502Z,15.30
2018-06-28T01:34:24.081Z,15.30
2018-06-28T01:36:51.696Z,15.20
2018-06-28T01:39:19.263Z,15.20
2018-06-28T01:41:58.122Z,15.20
2018-06-28T01:44:25.938Z,15.20
2018-06-28T01:46:53.592Z,15.20
2018-06-28T01:49:22.113Z,15.10
2018-06-28T01:51:49.825Z,15.10
2018-06-28T01:54:17.398Z,15.10
2018-06-28T01:56:44.941Z,15.00
2018-06-28T01:59:12.490Z,15.00
2018-06-28T02:01:40.068Z,15.00
2018-06-28T02:04:07.838Z,14.90
2018-06-28T02:06:35.520Z,14.90
2018-06-28T02:09:05.169Z,14.90
2018-06-28T02:11:32.745Z,14.80
2018-06-28T02:14:00.449Z,14.80
2018-06-28T02:16:27.979Z,14.80
2018-06-28T02:18:55.688Z,14.80
2018-06-28T02:21:23.294Z,14.70
2018-06-28T02:23:53.726Z,14.70
2018-06-28T02:26:21.494Z,14.70
2018-06-28T02:28:49.037Z,14.70
2018-06-28T02:31:19.297Z,14.60
2018-06-28T02:33:46.862Z,14.70
2018-06-28T02:36:14.551Z,14.50
2018-06-28T02:38:42.109Z,14.40
2018-06-28T02:41:09.706Z,14.40
2018-06-28T02:43:37.265Z,14.30
2018-06-28T02:46:05.006Z,14.30
2018-06-28T02:48:32.593Z,14.30
2018-06-28T02:51:00.141Z,14.10
2018-06-28T02:53:27.902Z,14.10
2018-06-28T02:55:55.496Z,14.10
2018-06-28T02:58:23.086Z,14.10
2018-06-28T03:00:50.716Z,14.00
2018-06-28T03:03:18.334Z,14.00
2018-06-28T03:05:45.886Z,14.00
2018-06-28T03:08:13.458Z,14.00
2018-06-28T03:10:41.022Z,13.90
2018-06-28T03:13:08.901Z,13.90
2018-06-28T03:15:38.202Z,13.90
2018-06-28T03:18:06.035Z,13.90
2018-06-28T03:20:33.574Z,13.80
2018-06-28T03:23:01.142Z,13.90
2018-06-28T03:25:30.426Z,13.80
2018-06-28T03:27:57.966Z,13.70
2018-06-28T03:30:25.665Z,13.80
2018-06-28T03:32:53.266Z,13.70
2018-06-28T03:35:20.849Z,13.70
2018-06-28T03:37:48.527Z,13.60
2018-06-28T03:40:16.070Z,13.60
2018-06-28T03:42:43.601Z,13.50
2018-06-28T03:45:11.249Z,13.50
2018-06-28T03:47:38.814Z,13.50
2018-06-28T03:50:06.406Z,13.60
2018-06-28T03:52:33.925Z,13.60
2018-06-28T03:55:01.510Z,13.50
2018-06-28T03:57:29.108Z,13.50
2018-06-28T03:59:56.629Z,13.50
2018-06-28T04:02:24.205Z,13.50
2018-06-28T04:04:52.170Z,13.50
2018-06-28T04:07:19.733Z,13.50
2018-06-28T04:09:47.446Z,13.50
2018-06-28T04:12:14.989Z,13.60
2018-06-28T04:14:42.689Z,13.60
2018-06-28T04:17:10.222Z,13.70
2018-06-28T04:19:37.811Z,13.80
2018-06-28T04:22:05.516Z,13.80
2018-06-28T04:24:33.110Z,13.80
2018-06-28T04:27:00.636Z,13.90
2018-06-28T04:29:29.042Z,14.00
2018-06-28T04:31:56.614Z,14.00
2018-06-28T04:34:24.239Z,14.10
2018-06-28T04:36:51.782Z,14.10
2018-06-28T04:39:19.494Z,14.20
2018-06-28T04:41:47.093Z,14.20
2018-06-28T04:44:14.761Z,14.30
2018-06-28T04:46:42.402Z,14.40
2018-06-28T04:49:10.914Z,14.40
2018-06-28T04:51:38.509Z,14.50
2018-06-28T04:54:06.080Z,14.50
2018-06-28T04:56:33.778Z,14.60
2018-06-28T04:59:02.332Z,14.70
2018-06-28T05:01:29.993Z,14.90
2018-06-28T05:03:57.552Z,15.00
2018-06-28T05:06:25.113Z,15.20
2018-06-28T05:08:52.668Z,15.30
2018-06-28T05:11:20.481Z,15.50
2018-06-28T05:13:48.029Z,15.50
2018-06-28T05:16:15.665Z,15.40
2018-06-28T05:18:43.265Z,15.40
2018-06-28T05:21:10.846Z,15.50
2018-06-28T05:23:38.394Z,15.60
2018-06-28T05:26:06.278Z,15.60
2018-06-28T05:28:34.198Z,15.70
2018-06-28T05:31:02.721Z,15.90
2018-06-28T05:33:30.282Z,15.90
2018-06-28T05:35:58.109Z,16.00
2018-06-28T05:38:25.655Z,16.10
2018-06-28T05:40:53.277Z,16.20
2018-06-28T05:43:20.818Z,16.40
2018-06-28T05:45:48.626Z,16.50
2018-06-28T05:48:16.227Z,16.70
2018-06-28T05:50:43.833Z,16.70
2018-06-28T05:53:11.689Z,16.80
2018-06-28T05:55:39.307Z,16.90
2018-06-28T05:58:06.910Z,17.00
2018-06-28T06:00:34.650Z,17.10
2018-06-28T06:03:02.277Z,17.10
2018-06-28T06:05:29.929Z,17.20
2018-06-28T06:07:57.524Z,17.30
2018-06-28T06:10:25.335Z,17.50
2018-06-28T06:12:52.890Z,17.60
2018-06-28T06:15:20.523Z,17.70
2018-06-28T06:17:48.085Z,17.80
2018-06-28T06:20:15.699Z,17.90
2018-06-28T06:22:43.290Z,18.10
2018-06-28T06:25:10.866Z,18.10
2018-06-28T06:27:38.534Z,18.20
2018-06-28T06:30:06.725Z,18.30
2018-06-28T06:32:34.332Z,18.40
2018-06-28T06:35:01.930Z,18.50
2018-06-28T06:37:29.538Z,18.70
2018-06-28T06:39:57.173Z,18.80
2018-06-28T06:42:24.756Z,19.00
2018-06-28T06:44:52.321Z,19.10
2018-06-28T06:47:19.885Z,19.10
2018-06-28T06:49:47.441Z,19.20
2018-06-28T06:52:15.173Z,19.30
2018-06-28T06:54:42.847Z,19.30
2018-06-28T06:57:10.367Z,19.40
2018-06-28T06:59:37.945Z,19.50
2018-06-28T07:02:05.818Z,19.60
2018-06-28T07:04:33.370Z,19.60
2018-06-28T07:07:01.067Z,19.60
2018-06-28T07:09:28.646Z,19.80
2018-06-28T07:11:56.246Z,19.90
2018-06-28T07:14:23.807Z,19.90
2018-06-28T07:16:51.416Z,20.00
2018-06-28T07:19:19.162Z,20.00
2018-06-28T07:21:46.745Z,19.90
2018-06-28T07:24:14.576Z,19.90
2018-06-28T07:26:42.142Z,19.90
2018-06-28T07:29:09.914Z,20.10
2018-06-28T07:31:37.616Z,20.30
2018-06-28T07:34:05.300Z,20.40
2018-06-28T07:36:33.033Z,20.50
2018-06-28T07:39:00.589Z,20.70
2018-06-28T07:41:28.198Z,20.70
2018-06-28T07:43:55.759Z,20.90
2018-06-28T07:46:23.373Z,21.00
2018-06-28T07:48:50.931Z,21.10
2018-06-28T07:51:18.546Z,21.20
2018-06-28T07:53:46.309Z,21.20
2018-06-28T07:56:13.934Z,21.20
2018-06-28T07:58:41.470Z,21.20
2018-06-28T08:01:09.310Z,21.40
2018-06-28T08:03:37.087Z,21.70
2018-06-28T08:06:05.065Z,21.80
2018-06-28T08:08:32.714Z,21.70
2018-06-28T08:11:00.297Z,21.80
2018-06-28T08:13:27.865Z,21.90
2018-06-28T08:15:55.416Z,22.20
2018-06-28T08:18:23.002Z,22.20
2018-06-28T08:20:50.560Z,22.30
2018-06-28T08:23:18.250Z,22.20
2018-06-28T08:25:45.854Z,22.20
2018-06-28T08:28:13.542Z,22.40
2018-06-28T08:30:41.182Z,22.30
2018-06-28T08:33:08.833Z,22.40
2018-06-28T08:35:36.402Z,22.40
2018-06-28T08:38:04.029Z,22.30
2018-06-28T08:40:31.639Z,22.20
2018-06-28T08:42:59.312Z,22.10
2018-06-28T08:45:27.139Z,22.20
2018-06-28T08:47:54.734Z,22.30
2018-06-28T08:50:22.346Z,22.50
2018-06-28T08:52:49.969Z,22.70
2018-06-28T08:55:17.633Z,22.80
2018-06-28T08:57:45.249Z,22.90
2018-06-28T09:00:13.526Z,23.00
2018-06-28T09:02:41.105Z,23.20
2018-06-28T09:05:08.686Z,23.30
2018-06-28T09:07:36.258Z,23.30
2018-06-28T09:10:04.054Z,23.50
2018-06-28T09:12:31.686Z,23.60
2018-06-28T09:14:59.310Z,23.80
2018-06-28T09:17:27.989Z,23.80
2018-06-28T09:19:55.850Z,23.90
2018-06-28T09:22:23.429Z,24.10
2018-06-28T09:24:51.001Z,24.30
2018-06-28T09:27:18.577Z,24.40
2018-06-28T09:29:46.189Z,24.50
2018-06-28T09:32:13.806Z,24.60
2018-06-28T09:34:41.529Z,24.70
2018-06-28T09:37:09.322Z,24.90
2018-06-28T09:39:36.947Z,25.00
2018-06-28T09:42:04.718Z,25.10
2018-06-28T09:44:32.293Z,25.10
2018-06-28T09:46:59.872Z,25.10
2018-06-28T09:49:27.463Z,25.10
2018-06-28T09:51:55.009Z,25.10
2018-06-28T09:54:22.626Z,25.30
2018-06-28T09:56:50.201Z,25.50
2018-06-28T09:59:17.821Z,25.70
2018-06-28T10:01:45.553Z,25.70
2018-06-28T10:04:13.146Z,25.70
2018-06-28T10:06:40.810Z,25.70
2018-06-28T10:09:09.280Z,25.80
2018-06-28T10:11:36.849Z,25.80
2018-06-28T10:14:04.570Z,26.00
2018-06-28T10:16:32.133Z,26.20
2018-06-28T10:18:59.729Z,26.20
2018-06-28T10:21:27.269Z,26.40
2018-06-28T10:23:54.868Z,26.60
2018-06-28T10:26:22.433Z,26.70
2018-06-28T10:28:50.024Z,26.70
2018-06-28T10:31:17.593Z,26.80
2018-06-28T10:33:45.313Z,26.70
2018-06-28T10:36:13.117Z,26.60
2018-06-28T10:38:40.693Z,26.60
2018-06-28T10:41:08.331Z,26.30
2018-06-28T10:43:37.908Z,25.90
2018-06-28T10:46:05.520Z,26.10
2018-06-28T10:48:33.097Z,26.40
2018-06-28T10:51:00.761Z,26.50
2018-06-28T10:53:29.305Z,26.50
2018-06-28T10:56:03.937Z,26.70
2018-06-28T10:58:31.501Z,26.90
2018-06-28T11:00:59.072Z,27.20
2018-06-28T11:03:26.945Z,27.50
2018-06-28T11:05:54.593Z,27.60
2018-06-28T11:08:22.226Z,27.50
2018-06-28T11:10:49.796Z,27.60
2018-06-28T11:13:17.396Z,27.60
2018-06-28T11:15:45.226Z,27.60
2018-06-28T11:18:12.880Z,27.70
2018-06-28T11:20:40.546Z,27.80
2018-06-28T11:23:08.317Z,27.80
2018-06-28T11:25:36.150Z,27.80
2018-06-28T11:28:03.911Z,27.60
2018-06-28T11:30:31.770Z,27.20
2018-06-28T11:32:59.505Z,27.50
2018-06-28T11:35:27.193Z,27.80
2018-06-28T11:37:54.850Z,28.10
2018-06-28T11:40:23.739Z,28.20
2018-06-28T11:42:51.594Z,28.00
2018-06-28T11:45:19.314Z,27.90
2018-06-28T11:47:48.719Z,28.20
2018-06-28T11:52:51.383Z,28.80
2018-06-28T11:55:21.167Z,29.00
2018-06-28T11:57:49.465Z,29.20
2018-06-28T12:00:17.625Z,29.30
2018-06-28T12:02:45.538Z,29.50
2018-06-28T12:05:13.140Z,29.60
2018-06-28T12:07:40.732Z,29.70
2018-06-28T12:10:08.682Z,29.80
2018-06-28T12:12:36.301Z,29.80
2018-06-28T12:15:03.946Z,29.30
2018-06-28T12:17:31.581Z,29.20
2018-06-28T12:19:59.240Z,29.30
2018-06-28T12:22:26.906Z,29.40
2018-06-28T12:24:54.782Z,29.60
2018-06-28T12:27:22.377Z,29.70
2018-06-28T12:29:50.225Z,29.60
2018-06-28T12:32:18.033Z,29.70
2018-06-28T12:34:45.706Z,29.90
2018-06-28T12:37:13.309Z,30.30
2018-06-28T12:39:40.910Z,30.70
2018-06-28T12:44:35.990Z,31.20
2018-06-28T12:47:41.373Z,31.20
2018-06-28T12:50:09.053Z,31.40
2018-06-28T12:52:42.616Z,31.50
2018-06-28T12:55:10.733Z,31.40
2018-06-28T12:57:38.412Z,31.50
2018-06-28T13:00:06.349Z,31.80
2018-06-28T13:02:33.934Z,32.00
2018-06-28T13:05:01.634Z,31.60
2018-06-28T13:07:29.222Z,31.30
2018-06-28T13:09:57.011Z,30.80
2018-06-28T13:12:24.589Z,30.80
2018-06-28T13:14:52.254Z,31.10
2018-06-28T13:17:19.861Z,31.50
2018-06-28T13:19:47.484Z,32.00
2018-06-28T13:22:15.091Z,32.30
2018-06-28T13:24:43.013Z,32.50
2018-06-28T13:27:10.569Z,32.80
2018-06-28T13:29:38.213Z,33.10
2018-06-28T13:32:05.821Z,33.40
2018-06-28T13:34:33.492Z,33.10
2018-06-28T13:37:01.097Z,33.00
2018-06-28T13:39:28.703Z,33.20
2018-06-28T13:41:56.729Z,33.40
2018-06-28T13:44:25.034Z,33.60
2018-06-28T13:46:53.269Z,33.90
2018-06-28T13:49:20.999Z,33.40
2018-06-28T13:51:48.672Z,32.90
2018-06-28T13:54:16.392Z,32.40
2018-06-28T13:56:44.018Z,32.40
2018-06-28T13:59:11.661Z,33.10
2018-06-28T14:01:43.568Z,33.70
2018-06-28T14:04:11.273Z,33.40
2018-06-28T14:06:39.190Z,32.60
2018-06-28T14:09:09.220Z,33.50
2018-06-28T14:11:36.825Z,35.40
2018-06-28T14:14:04.521Z,37.70
2018-06-28T14:16:32.180Z,38.80
2018-06-28T14:18:59.673Z,39.30
2018-06-28T14:21:27.262Z,40.00
2018-06-28T14:23:54.813Z,40.90
2018-06-28T14:26:22.489Z,41.50
2018-06-28T14:28:50.049Z,40.90
2018-06-28T14:31:17.633Z,41.20
2018-06-28T14:33:45.194Z,41.30
2018-06-28T14:36:12.787Z,41.60
2018-06-28T14:38:40.497Z,41.20
2018-06-28T14:41:08.497Z,40.30
2018-06-28T14:43:36.114Z,40.00
2018-06-28T14:46:04.121Z,39.90
2018-06-28T14:48:31.775Z,39.70
2018-06-28T14:50:59.390Z,39.50
2018-06-28T14:53:27.021Z,40.00
2018-06-28T14:55:54.623Z,40.70
2018-06-28T14:58:22.209Z,40.40
2018-06-28T15:00:49.813Z,40.20
2018-06-28T15:03:19.266Z,39.60
2018-06-28T15:05:46.972Z,39.30
2018-06-28T15:08:14.573Z,39.60
2018-06-28T15:10:42.237Z,40.00
2018-06-28T15:13:09.954Z,39.70
2018-06-28T15:15:37.614Z,39.30
2018-06-28T15:18:05.381Z,39.70
2018-06-28T15:20:33.085Z,41.00
2018-06-28T15:23:00.678Z,41.50
2018-06-28T15:25:28.271Z,42.20
2018-06-28T15:27:56.879Z,42.60
2018-06-28T15:30:25.233Z,41.80
2018-06-28T15:32:52.833Z,42.70
2018-06-28T15:35:20.436Z,43.20
2018-06-28T15:37:48.057Z,42.50
2018-06-28T15:40:15.654Z,43.00
2018-06-28T15:42:43.833Z,43.50
2018-06-28T15:45:11.490Z,43.50
2018-06-28T15:47:39.492Z,43.80
2018-06-28T15:50:07.898Z,42.60
2018-06-28T15:52:35.770Z,42.20
2018-06-28T15:55:03.387Z,42.30
2018-06-28T15:57:31.128Z,41.90
2018-06-28T15:59:58.653Z,42.90
2018-06-28T16:02:26.366Z,42.70
2018-06-28T16:04:53.981Z,41.40
2018-06-28T16:07:21.772Z,41.70
2018-06-28T16:09:50.325Z,42.30
2018-06-28T16:12:18.124Z,42.00
2018-06-28T16:14:45.765Z,43.20
2018-06-28T16:17:13.379Z,43.40
2018-06-28T16:19:40.961Z,42.90
2018-06-28T16:22:08.582Z,42.70
2018-06-28T16:24:36.310Z,42.90
2018-06-28T16:27:03.990Z,42.80
2018-06-28T16:29:31.745Z,43.40
2018-06-28T16:31:59.452Z,42.60
2018-06-28T16:34:27.033Z,42.60
2018-06-28T16:36:54.584Z,43.80
2018-06-28T16:39:22.571Z,42.60
2018-06-28T16:41:50.317Z,41.80
2018-06-28T16:44:17.947Z,41.30
2018-06-28T16:46:45.663Z,41.70
2018-06-28T16:49:13.234Z,42.20
2018-06-28T16:51:40.830Z,42.40
2018-06-28T16:54:08.969Z,42.10
2018-06-28T16:56:36.574Z,42.10
2018-06-28T16:59:04.360Z,40.70
2018-06-28T17:01:32.909Z,39.40
2018-06-28T17:04:00.574Z,39.60
2018-06-28T17:06:28.132Z,40.20
2018-06-28T17:08:55.739Z,40.40
2018-06-28T17:11:23.321Z,39.20
2018-06-28T17:13:50.957Z,38.60
2018-06-28T17:16:18.621Z,37.50
2018-06-28T17:18:46.216Z,36.90
2018-06-28T17:21:13.953Z,37.40
2018-06-28T17:23:41.908Z,37.50
2018-06-28T17:26:09.497Z,36.50
2018-06-28T17:28:37.124Z,35.20
2018-06-28T17:31:05.560Z,33.70
2018-06-28T17:33:33.249Z,32.80
2018-06-28T17:36:00.962Z,32.30
2018-06-28T17:38:32.566Z,31.50
2018-06-28T17:41:00.290Z,31.20
2018-06-28T17:43:27.882Z,31.00
2018-06-28T17:45:55.425Z,30.80
2018-06-28T17:48:24.059Z,30.30
2018-06-28T17:50:52.264Z,29.90
2018-06-28T17:53:20.673Z,29.40
2018-06-28T17:55:48.882Z,29.20
2018-06-28T17:58:17.054Z,29.10
2018-06-28T18:00:46.222Z,29.10
2018-06-28T18:03:15.735Z,29.20
2018-06-28T18:05:44.935Z,29.60
2018-06-28T18:08:14.643Z,30.40
2018-06-28T18:10:43.169Z,30.20
2018-06-28T18:13:11.412Z,29.70
2018-06-28T18:15:39.680Z,29.20
2018-06-28T18:18:08.097Z,28.90
2018-06-28T18:20:35.863Z,28.80
2018-06-28T18:23:03.792Z,28.60
2018-06-28T18:25:31.377Z,28.70
2018-06-28T18:27:58.957Z,28.50
2018-06-28T18:30:26.567Z,28.60
2018-06-28T18:32:54.165Z,28.80
2018-06-28T18:35:23.607Z,28.60
2018-06-28T18:37:51.374Z,28.20
2018-06-28T18:40:18.970Z,27.80
2018-06-28T18:42:46.594Z,27.60
2018-06-28T18:45:14.216Z,27.40
2018-06-28T18:47:41.832Z,27.20
2018-06-28T18:50:09.503Z,27.10
2018-06-28T18:52:38.023Z,26.90
2018-06-28T18:55:06.478Z,26.70
2018-06-28T18:57:34.061Z,26.60
2018-06-28T19:00:01.778Z,26.50
2018-06-28T19:02:29.461Z,26.40
2018-06-28T19:04:57.237Z,26.40
2018-06-28T19:07:24.793Z,26.30
2018-06-28T19:09:57.869Z,26.10
2018-06-28T19:12:25.432Z,26.10
2018-06-28T19:14:58.598Z,26.00
2018-06-28T19:17:30.945Z,25.90
2018-06-28T19:19:59.253Z,25.80
2018-06-28T19:22:32.404Z,25.60
2018-06-28T19:25:00.034Z,25.50
2018-06-28T19:27:27.841Z,25.40
2018-06-28T19:30:01.035Z,25.40
2018-06-28T19:32:30.409Z,25.30
2018-06-28T19:34:58.985Z,25.20
2018-06-28T19:37:32.291Z,25.10
2018-06-28T19:40:08.417Z,25.10
2018-06-28T19:42:41.881Z,25.00
2018-06-28T19:45:09.508Z,24.90
2018-06-28T19:47:37.344Z,24.90
2018-06-28T19:50:11.678Z,24.90
2018-06-28T19:52:45.078Z,24.80
2018-06-28T19:55:12.666Z,24.70
2018-06-28T19:57:41.157Z,24.60
2018-06-28T20:00:20.753Z,24.50
2018-06-28T20:02:54.078Z,24.50
2018-06-28T20:05:21.818Z,24.40
2018-06-28T20:07:51.311Z,24.30
2018-06-28T20:10:20.642Z,24.20
2018-06-28T20:12:53.825Z,24.20
2018-06-28T20:15:38.397Z,24.00
2018-06-28T20:18:11.801Z,24.00
2018-06-28T20:20:40.337Z,24.00
2018-06-28T20:23:08.463Z,23.90
2018-06-28T20:25:36.081Z,23.90
2018-06-28T20:28:09.512Z,23.90
2018-06-28T20:30:42.821Z,23.80
2018-06-28T20:34:14.717Z,23.70
2018-06-28T20:36:42.714Z,23.60
2018-06-28T20:39:12.145Z,23.50
2018-06-28T20:41:39.717Z,23.50
2018-06-28T20:44:07.388Z,23.40
2018-06-28T20:46:35.517Z,23.40
2018-06-28T20:49:03.251Z,23.40
2018-06-28T20:51:31.057Z,23.30
2018-06-28T20:53:59.032Z,23.30
2018-06-28T20:56:27.007Z,23.20
2018-06-28T20:58:54.824Z,23.20
2018-06-28T21:01:22.423Z,23.10
2018-06-28T21:03:50.561Z,23.10
2018-06-28T21:06:18.192Z,23.10
2018-06-28T21:08:45.732Z,23.00
2018-06-28T21:11:13.375Z,23.00
2018-06-28T21:13:41.429Z,22.90
2018-06-28T21:16:09.040Z,22.80
2018-06-28T21:18:36.673Z,22.80
2018-06-28T21:21:04.315Z,22.70
2018-06-28T21:23:31.945Z,22.70
2018-06-28T21:25:59.560Z,22.70
2018-06-28T21:28:27.217Z,22.60
2018-06-28T21:30:55.197Z,22.60
2018-06-28T21:33:22.810Z,22.60
2018-06-28T21:35:50.485Z,22.40
2018-06-28T21:38:18.137Z,22.40
2018-06-28T21:40:45.733Z,22.30
2018-06-28T21:43:13.301Z,22.20
2018-06-28T21:45:41.550Z,22.00
2018-06-28T21:48:09.535Z,21.80
2018-06-28T21:50:37.167Z,21.70
2018-06-28T21:53:04.733Z,21.60
2018-06-28T21:55:32.487Z,21.40
2018-06-28T21:58:00.069Z,21.30
2018-06-28T22:00:37.430Z,21.30
2018-06-28T22:03:06.911Z,21.30
2018-06-28T22:05:34.780Z,21.20
2018-06-28T22:08:03.619Z,21.10
2018-06-28T22:10:31.133Z,20.90
2018-06-28T22:12:58.761Z,20.90
2018-06-28T22:15:28.465Z,20.90
2018-06-28T22:17:58.130Z,20.80
2018-06-28T22:20:26.723Z,20.80
2018-06-28T22:22:54.645Z,20.60
2018-06-28T22:25:26.464Z,20.50
2018-06-28T22:27:54.129Z,20.40
2018-06-28T22:30:22.725Z,20.30
2018-06-28T22:32:50.309Z,20.30
2018-06-28T22:35:18.014Z,20.30
2018-06-28T22:37:46.863Z,20.20
2018-06-28T22:40:14.518Z,20.10
2018-06-28T22:42:42.133Z,20.10
2018-06-28T22:45:10.123Z,20.10
2018-06-28T22:47:37.820Z,20.10
2018-06-28T22:50:05.732Z,20.10
2018-06-28T22:52:34.017Z,20.10
2018-06-28T22:55:01.650Z,20.10
2018-06-28T22:57:29.249Z,20.20
2018-06-28T22:59:57.109Z,20.30
2018-06-28T23:02:24.801Z,20.50
2018-06-28T23:04:52.943Z,20.60
2018-06-28T23:07:20.617Z,20.80
2018-06-28T23:09:48.291Z,20.80
2018-06-28T23:12:15.927Z,20.80
2018-06-28T23:14:43.605Z,20.80
2018-06-28T23:17:11.218Z,20.90
2018-06-28T23:19:38.870Z,21.00
2018-06-28T23:22:06.847Z,21.00
2018-06-28T23:24:34.442Z,21.00
2018-06-28T23:27:02.043Z,21.00
2018-06-28T23:29:30.580Z,20.90
2018-06-28T23:31:58.163Z,20.90
2018-06-28T23:34:25.706Z,20.90
2018-06-28T23:36:53.277Z,20.80
2018-06-28T23:39:20.886Z,20.70
2018-06-28T23:41:48.458Z,20.70
2018-06-28T23:44:16.065Z,20.70
2018-06-28T23:46:43.662Z,20.70
2018-06-28T23:49:11.264Z,20.70
2018-06-28T23:51:38.913Z,20.70
2018-06-28T23:54:06.514Z,20.60
2018-06-28T23:56:34.110Z,20.60
2018-06-28T23:59:01.705Z,20.40
